sensor_id;sensor_type;location;lat;lon;timestamp;pressure;altitude;pressure_sealevel;temperature;humidity
44103;BME280;29769;42.178;24.742;2023-01-28T00:02:24;98859.09;;;3.42;100.00
44103;BME280;29769;42.178;24.742;2023-01-28T00:05:09;98836.56;;;3.33;100.00
44103;BME280;29769;42.178;24.742;2023-01-28T00:07:54;98864.31;;;3.34;100.00
44103;BME280;29769;42.178;24.742;2023-01-28T00:10:41;98863.44;;;3.25;100.00
44103;BME280;29769;42.178;24.742;2023-01-28T00:13:29;98853.91;;;3.21;100.00
44103;BME280;29769;42.178;24.742;2023-01-28T00:16:14;98834.84;;;3.29;100.00
44103;BME280;29769;42.178;24.742;2023-01-28T00:19:00;98886.81;;;3.32;100.00
44103;BME280;29769;42.178;24.742;2023-01-28T00:21:45;98868.63;;;3.32;100.00
44103;BME280;29769;42.178;24.742;2023-01-28T00:24:31;98879.91;;;3.31;100.00
44103;BME280;29769;42.178;24.742;2023-01-28T00:27:16;98885.09;;;3.27;100.00
44103;BME280;29769;42.178;24.742;2023-01-28T00:30:01;98876.44;;;3.25;100.00
44103;BME280;29769;42.178;24.742;2023-01-28T00:32:46;98859.94;;;3.10;100.00
44103;BME280;29769;42.178;24.742;2023-01-28T00:35:30;98895.50;;;3.22;100.00
44103;BME280;29769;42.178;24.742;2023-01-28T00:38:15;98880.72;;;3.18;100.00
44103;BME280;29769;42.178;24.742;2023-01-28T00:41:15;98886.81;;;3.23;100.00
44103;BME280;29769;42.178;24.742;2023-01-28T00:44:00;98902.41;;;3.19;100.00
44103;BME280;29769;42.178;24.742;2023-01-28T00:46:45;98911.94;;;3.17;100.00
44103;BME280;29769;42.178;24.742;2023-01-28T00:49:29;98886.81;;;3.17;100.00
44103;BME280;29769;42.178;24.742;2023-01-28T00:52:14;98899.81;;;3.23;100.00
44103;BME280;29769;42.178;24.742;2023-01-28T00:54:59;98908.47;;;3.25;100.00
44103;BME280;29769;42.178;24.742;2023-01-28T00:57:44;98922.31;;;3.27;100.00
44103;BME280;29769;42.178;24.742;2023-01-28T01:00:29;98905.03;;;3.26;100.00
44103;BME280;29769;42.178;24.742;2023-01-28T01:03:14;98912.81;;;3.28;100.00
44103;BME280;29769;42.178;24.742;2023-01-28T01:05:59;98922.34;;;3.24;100.00
44103;BME280;29769;42.178;24.742;2023-01-28T01:08:44;98924.94;;;3.21;100.00
44103;BME280;29769;42.178;24.742;2023-01-28T01:11:35;98934.44;;;3.19;100.00
44103;BME280;29769;42.178;24.742;2023-01-28T01:14:20;98936.19;;;3.17;100.00
44103;BME280;29769;42.178;24.742;2023-01-28T01:17:05;98928.38;;;3.14;100.00
44103;BME280;29769;42.178;24.742;2023-01-28T01:19:50;98920.56;;;3.14;100.00
44103;BME280;29769;42.178;24.742;2023-01-28T01:22:35;98928.38;;;3.12;100.00
44103;BME280;29769;42.178;24.742;2023-01-28T01:25:20;98897.19;;;2.99;100.00
44103;BME280;29769;42.178;24.742;2023-01-28T01:28:05;98943.09;;;3.13;100.00
44103;BME280;29769;42.178;24.742;2023-01-28T01:30:58;98923.19;;;3.12;100.00
44103;BME280;29769;42.178;24.742;2023-01-28T01:33:45;98930.13;;;3.12;100.00
44103;BME280;29769;42.178;24.742;2023-01-28T01:36:30;98919.72;;;3.12;100.00
44103;BME280;29769;42.178;24.742;2023-01-28T01:39:15;98937.03;;;3.07;100.00
44103;BME280;29769;42.178;24.742;2023-01-28T01:42:00;98943.97;;;3.03;100.00
44103;BME280;29769;42.178;24.742;2023-01-28T01:45:03;98958.69;;;3.15;100.00
44103;BME280;29769;42.178;24.742;2023-01-28T01:48:03;98963.03;;;3.13;100.00
44103;BME280;29769;42.178;24.742;2023-01-28T01:50:58;98962.16;;;3.09;100.00
44103;BME280;29769;42.178;24.742;2023-01-28T01:53:47;98962.16;;;3.16;100.00
44103;BME280;29769;42.178;24.742;2023-01-28T01:56:37;98972.56;;;3.16;100.00
44103;BME280;29769;42.178;24.742;2023-01-28T01:59:27;98982.09;;;3.17;100.00
44103;BME280;29769;42.178;24.742;2023-01-28T02:02:12;98973.44;;;3.19;100.00
44103;BME280;29769;42.178;24.742;2023-01-28T02:04:57;98980.38;;;3.20;100.00
44103;BME280;29769;42.178;24.742;2023-01-28T02:07:44;98927.44;;;2.91;100.00
44103;BME280;29769;42.178;24.742;2023-01-28T02:10:29;98979.50;;;3.21;100.00
44103;BME280;29769;42.178;24.742;2023-01-28T02:13:16;98995.09;;;3.24;100.00
44103;BME280;29769;42.178;24.742;2023-01-28T02:16:02;98960.44;;;3.14;100.00
44103;BME280;29769;42.178;24.742;2023-01-28T02:18:48;98963.91;;;3.15;100.00
44103;BME280;29769;42.178;24.742;2023-01-28T02:21:50;98983.88;;;3.27;100.00
44103;BME280;29769;42.178;24.742;2023-01-28T02:28:11;98991.66;;;3.28;100.00
44103;BME280;29769;42.178;24.742;2023-01-28T02:31:10;98995.13;;;3.30;100.00
44103;BME280;29769;42.178;24.742;2023-01-28T02:37:39;98990.81;;;3.31;100.00
44103;BME280;29769;42.178;24.742;2023-01-28T02:40:32;98977.81;;;3.29;100.00
44103;BME280;29769;42.178;24.742;2023-01-28T02:43:40;98996.88;;;3.30;100.00
44103;BME280;29769;42.178;24.742;2023-01-28T02:49:41;99002.91;;;3.29;100.00
44103;BME280;29769;42.178;24.742;2023-01-28T02:52:52;99000.31;;;3.29;100.00
44103;BME280;29769;42.178;24.742;2023-01-28T02:56:13;98997.69;;;3.23;100.00
44103;BME280;29769;42.178;24.742;2023-01-28T02:59:19;99002.88;;;3.20;100.00
44103;BME280;29769;42.178;24.742;2023-01-28T03:02:31;99010.69;;;3.24;100.00
44103;BME280;29769;42.178;24.742;2023-01-28T03:05:26;99004.66;;;3.25;100.00
44103;BME280;29769;42.178;24.742;2023-01-28T03:08:13;99018.50;;;3.24;100.00
44103;BME280;29769;42.178;24.742;2023-01-28T03:11:34;98998.56;;;3.17;100.00
44103;BME280;29769;42.178;24.742;2023-01-28T03:14:39;99026.28;;;3.23;100.00
44103;BME280;29769;42.178;24.742;2023-01-28T03:17:46;98997.69;;;3.23;100.00
44103;BME280;29769;42.178;24.742;2023-01-28T03:21:07;99015.03;;;3.18;100.00
44103;BME280;29769;42.178;24.742;2023-01-28T03:30:42;99021.88;;;3.05;100.00
44103;BME280;29769;42.178;24.742;2023-01-28T03:33:57;99009.72;;;2.93;100.00
44103;BME280;29769;42.178;24.742;2023-01-28T03:37:02;99032.31;;;3.11;100.00
44103;BME280;29769;42.178;24.742;2023-01-28T03:40:05;99021.94;;;3.12;100.00
44103;BME280;29769;42.178;24.742;2023-01-28T03:42:51;99021.03;;;3.09;100.00
44103;BME280;29769;42.178;24.742;2023-01-28T03:45:48;99035.78;;;3.08;100.00
44103;BME280;29769;42.178;24.742;2023-01-28T03:48:35;99030.56;;;3.02;100.00
44103;BME280;29769;42.178;24.742;2023-01-28T03:51:23;99027.97;;;3.05;100.00
44103;BME280;29769;42.178;24.742;2023-01-28T03:54:08;99014.06;;;2.93;100.00
44103;BME280;29769;42.178;24.742;2023-01-28T03:56:53;99040.06;;;2.97;100.00
44103;BME280;29769;42.178;24.742;2023-01-28T03:59:38;99023.59;;;2.94;100.00
44103;BME280;29769;42.178;24.742;2023-01-28T04:02:23;99046.97;;;2.94;100.00
44103;BME280;29769;42.178;24.742;2023-01-28T04:05:10;99048.66;;;2.84;100.00
44103;BME280;29769;42.178;24.742;2023-01-28T04:08:02;99047.78;;;2.84;100.00
44103;BME280;29769;42.178;24.742;2023-01-28T04:11:06;99033.06;;;2.81;100.00
44103;BME280;29769;42.178;24.742;2023-01-28T04:14:02;99046.00;;;2.78;100.00
44103;BME280;29769;42.178;24.742;2023-01-28T04:17:16;99047.72;;;2.78;100.00
44103;BME280;29769;42.178;24.742;2023-01-28T04:20:03;99049.44;;;2.69;100.00
44103;BME280;29769;42.178;24.742;2023-01-28T04:22:48;99044.22;;;2.66;100.00
44103;BME280;29769;42.178;24.742;2023-01-28T04:25:34;99046.78;;;2.63;100.00
44103;BME280;29769;42.178;24.742;2023-01-28T04:28:19;99038.13;;;2.61;100.00
44103;BME280;29769;42.178;24.742;2023-01-28T04:31:03;99061.50;;;2.60;100.00
44103;BME280;29769;42.178;24.742;2023-01-28T04:34:11;99071.00;;;2.58;100.00
44103;BME280;29769;42.178;24.742;2023-01-28T04:37:22;99041.50;;;2.44;100.00
44103;BME280;29769;42.178;24.742;2023-01-28T04:40:13;99057.91;;;2.43;100.00
44103;BME280;29769;42.178;24.742;2023-01-28T04:43:01;99051.72;;;2.24;100.00
44103;BME280;29769;42.178;24.742;2023-01-28T04:46:09;99065.56;;;2.28;100.00
44103;BME280;29769;42.178;24.742;2023-01-28T04:49:13;99073.34;;;2.24;100.00
44103;BME280;29769;42.178;24.742;2023-01-28T04:52:06;99077.63;;;2.18;100.00
44103;BME280;29769;42.178;24.742;2023-01-28T04:55:17;99087.13;;;2.19;100.00
44103;BME280;29769;42.178;24.742;2023-01-28T04:58:05;99091.41;;;2.14;100.00
44103;BME280;29769;42.178;24.742;2023-01-28T05:00:56;99090.53;;;2.09;100.00
44103;BME280;29769;42.178;24.742;2023-01-28T05:03:42;99100.03;;;2.08;100.00
44103;BME280;29769;42.178;24.742;2023-01-28T05:06:32;99098.34;;;2.13;100.00
44103;BME280;29769;42.178;24.742;2023-01-28T05:09:22;99100.13;;;2.20;100.00
44103;BME280;29769;42.178;24.742;2023-01-28T05:12:09;99094.88;;;2.14;100.00
44103;BME280;29769;42.178;24.742;2023-01-28T05:14:55;99108.03;;;2.31;100.00
44103;BME280;29769;42.178;24.742;2023-01-28T05:17:40;99112.41;;;2.41;100.00
44103;BME280;29769;42.178;24.742;2023-01-28T05:20:27;99089.84;;;2.30;100.00
44103;BME280;29769;42.178;24.742;2023-01-28T05:23:14;99115.84;;;2.37;100.00
44103;BME280;29769;42.178;24.742;2023-01-28T05:26:12;99117.56;;;2.38;100.00
44103;BME280;29769;42.178;24.742;2023-01-28T05:28:57;99118.50;;;2.45;100.00
44103;BME280;29769;42.178;24.742;2023-01-28T05:31:42;99122.81;;;2.46;100.00
44103;BME280;29769;42.178;24.742;2023-01-28T05:34:27;99122.00;;;2.48;100.00
44103;BME280;29769;42.178;24.742;2023-01-28T05:37:13;99116.84;;;2.53;100.00
44103;BME280;29769;42.178;24.742;2023-01-28T05:39:59;99096.84;;;2.43;100.00
44103;BME280;29769;42.178;24.742;2023-01-28T05:42:43;99128.09;;;2.55;100.00
44103;BME280;29769;42.178;24.742;2023-01-28T05:45:40;99135.06;;;2.59;100.00
44103;BME280;29769;42.178;24.742;2023-01-28T05:48:35;99140.25;;;2.59;100.00
44103;BME280;29769;42.178;24.742;2023-01-28T05:51:52;99135.06;;;2.62;100.00
44103;BME280;29769;42.178;24.742;2023-01-28T05:54:39;99136.81;;;2.61;100.00
44103;BME280;29769;42.178;24.742;2023-01-28T05:57:24;99146.31;;;2.61;100.00
44103;BME280;29769;42.178;24.742;2023-01-28T06:00:10;99156.69;;;2.61;100.00
44103;BME280;29769;42.178;24.742;2023-01-28T06:03:02;99154.97;;;2.61;100.00
44103;BME280;29769;42.178;24.742;2023-01-28T06:05:47;99166.22;;;2.63;100.00
44103;BME280;29769;42.178;24.742;2023-01-28T06:08:32;99173.13;;;2.60;100.00
44103;BME280;29769;42.178;24.742;2023-01-28T06:11:17;99166.22;;;2.60;100.00
44103;BME280;29769;42.178;24.742;2023-01-28T06:14:02;99178.38;;;2.66;100.00
44103;BME280;29769;42.178;24.742;2023-01-28T06:17:16;99176.66;;;2.66;100.00
44103;BME280;29769;42.178;24.742;2023-01-28T06:20:18;99143.66;;;2.53;100.00
44103;BME280;29769;42.178;24.742;2023-01-28T06:23:05;99187.09;;;2.71;100.00
44103;BME280;29769;42.178;24.742;2023-01-28T06:25:54;99190.53;;;2.73;100.00
44103;BME280;29769;42.178;24.742;2023-01-28T06:28:39;99188.00;;;2.76;100.00
44103;BME280;29769;42.178;24.742;2023-01-28T06:31:24;99196.69;;;2.83;100.00
44103;BME280;29769;42.178;24.742;2023-01-28T06:34:09;99177.59;;;2.78;100.00
44103;BME280;29769;42.178;24.742;2023-01-28T06:36:54;99200.25;;;2.94;100.00
44103;BME280;29769;42.178;24.742;2023-01-28T06:39:39;99202.00;;;2.98;100.00
44103;BME280;29769;42.178;24.742;2023-01-28T06:42:24;99208.09;;;3.04;100.00
44103;BME280;29769;42.178;24.742;2023-01-28T06:45:09;99206.38;;;3.03;100.00
44103;BME280;29769;42.178;24.742;2023-01-28T06:47:54;99213.38;;;3.12;100.00
44103;BME280;29769;42.178;24.742;2023-01-28T06:50:39;99206.44;;;3.14;100.00
44103;BME280;29769;42.178;24.742;2023-01-28T06:53:24;99223.78;;;3.17;100.00
44103;BME280;29769;42.178;24.742;2023-01-28T06:56:09;99227.28;;;3.22;100.00
44103;BME280;29769;42.178;24.742;2023-01-28T06:58:53;99215.19;;;3.25;100.00
44103;BME280;29769;42.178;24.742;2023-01-28T07:01:38;99217.81;;;3.30;100.00
44103;BME280;29769;42.178;24.742;2023-01-28T07:04:23;99233.41;;;3.31;100.00
44103;BME280;29769;42.178;24.742;2023-01-28T07:07:08;99234.31;;;3.38;100.00
44103;BME280;29769;42.178;24.742;2023-01-28T07:09:53;99229.16;;;3.45;100.00
44103;BME280;29769;42.178;24.742;2023-01-28T07:12:38;99240.47;;;3.53;100.00
44103;BME280;29769;42.178;24.742;2023-01-28T07:15:23;99244.88;;;3.67;100.00
44103;BME280;29769;42.178;24.742;2023-01-28T07:18:07;99241.41;;;3.69;100.00
44103;BME280;29769;42.178;24.742;2023-01-28T07:20:52;99241.47;;;3.78;100.00
44103;BME280;29769;42.178;24.742;2023-01-28T07:23:37;99245.81;;;3.82;100.00
44103;BME280;29769;42.178;24.742;2023-01-28T07:26:23;99247.59;;;3.95;100.00
44103;BME280;29769;42.178;24.742;2023-01-28T07:29:08;99251.09;;;3.99;100.00
44103;BME280;29769;42.178;24.742;2023-01-28T07:31:53;99236.31;;;3.92;100.00
44103;BME280;29769;42.178;24.742;2023-01-28T07:34:37;99257.19;;;4.07;100.00
44103;BME280;29769;42.178;24.742;2023-01-28T07:37:25;99263.31;;;4.24;100.00
44103;BME280;29769;42.178;24.742;2023-01-28T07:40:10;99265.16;;;4.71;100.00
44103;BME280;29769;42.178;24.742;2023-01-28T07:42:55;99253.00;;;5.38;100.00
44103;BME280;29769;42.178;24.742;2023-01-28T07:45:40;99255.59;;;5.44;100.00
44103;BME280;29769;42.178;24.742;2023-01-28T07:48:25;99255.53;;;5.65;100.00
44103;BME280;29769;42.178;24.742;2023-01-28T07:51:10;99251.97;;;5.95;100.00
44103;BME280;29769;42.178;24.742;2023-01-28T07:53:55;99275.50;;;5.77;100.00
44103;BME280;29769;42.178;24.742;2023-01-28T07:56:41;99261.56;;;5.96;100.00
44103;BME280;29769;42.178;24.742;2023-01-28T07:59:25;99254.63;;;5.92;100.00
44103;BME280;29769;42.178;24.742;2023-01-28T08:02:10;99254.13;;;6.83;100.00
44103;BME280;29769;42.178;24.742;2023-01-28T08:04:56;99234.72;;;7.10;100.00
44103;BME280;29769;42.178;24.742;2023-01-28T08:07:44;99253.00;;;7.18;100.00
44103;BME280;29769;42.178;24.742;2023-01-28T08:10:29;99270.00;;;7.63;100.00
44103;BME280;29769;42.178;24.742;2023-01-28T08:13:15;99271.66;;;7.68;100.00
44103;BME280;29769;42.178;24.742;2023-01-28T08:16:00;99270.78;;;7.72;100.00
44103;BME280;29769;42.178;24.742;2023-01-28T08:18:45;99262.97;;;8.41;100.00
44103;BME280;29769;42.178;24.742;2023-01-28T08:21:29;99283.47;;;8.04;100.00
44103;BME280;29769;42.178;24.742;2023-01-28T08:24:14;99243.97;;;8.22;100.00
44103;BME280;29769;42.178;24.742;2023-01-28T08:26:59;99269.31;;;8.22;99.00
44103;BME280;29769;42.178;24.742;2023-01-28T08:29:44;99295.22;;;8.49;100.00
44103;BME280;29769;42.178;24.742;2023-01-28T08:32:29;99292.78;;;8.32;98.95
44103;BME280;29769;42.178;24.742;2023-01-28T08:35:14;99292.34;;;8.66;93.54
44103;BME280;29769;42.178;24.742;2023-01-28T08:38:00;99285.63;;;8.45;95.03
44103;BME280;29769;42.178;24.742;2023-01-28T08:40:46;99296.78;;;9.19;93.99
44103;BME280;29769;42.178;24.742;2023-01-28T08:43:31;99273.31;;;8.53;89.99
44103;BME280;29769;42.178;24.742;2023-01-28T08:46:16;99326.19;;;8.84;88.47
44103;BME280;29769;42.178;24.742;2023-01-28T08:49:00;99300.41;;;8.51;85.10
44103;BME280;29769;42.178;24.742;2023-01-28T08:51:45;99278.44;;;7.89;88.85
44103;BME280;29769;42.178;24.742;2023-01-28T08:54:32;99307.91;;;7.16;92.68
44103;BME280;29769;42.178;24.742;2023-01-28T08:57:16;99314.03;;;7.13;96.56
44103;BME280;29769;42.178;24.742;2023-01-28T09:00:01;99287.25;;;6.78;97.30
44103;BME280;29769;42.178;24.742;2023-01-28T09:02:50;99318.56;;;6.87;97.62
44103;BME280;29769;42.178;24.742;2023-01-28T09:05:35;99311.75;;;6.66;100.00
44103;BME280;29769;42.178;24.742;2023-01-28T09:08:21;99309.88;;;6.85;98.97
44103;BME280;29769;42.178;24.742;2023-01-28T09:11:05;99302.03;;;6.85;98.90
44103;BME280;29769;42.178;24.742;2023-01-28T09:13:50;99257.72;;;6.67;98.11
44103;BME280;29769;42.178;24.742;2023-01-28T09:16:35;99293.09;;;7.17;93.78
44103;BME280;29769;42.178;24.742;2023-01-28T09:19:20;99318.31;;;7.24;91.12
44103;BME280;29769;42.178;24.742;2023-01-28T09:22:05;99315.78;;;7.13;91.55
44103;BME280;29769;42.178;24.742;2023-01-28T09:24:50;99306.22;;;7.09;91.95
44103;BME280;29769;42.178;24.742;2023-01-28T09:27:35;99322.63;;;7.29;91.12
44103;BME280;29769;42.178;24.742;2023-01-28T09:30:19;99314.97;;;7.99;84.63
44103;BME280;29769;42.178;24.742;2023-01-28T09:33:05;99325.81;;;9.08;78.96
44103;BME280;29769;42.178;24.742;2023-01-28T09:35:50;99317.53;;;9.34;75.57
44103;BME280;29769;42.178;24.742;2023-01-28T09:38:35;99296.63;;;9.29;75.38
44103;BME280;29769;42.178;24.742;2023-01-28T09:47:29;99314.25;;;8.62;81.96
44103;BME280;29769;42.178;24.742;2023-01-28T09:50:27;99314.56;;;8.39;80.77
44103;BME280;29769;42.178;24.742;2023-01-28T09:53:30;99330.56;;;8.09;83.23
44103;BME280;29769;42.178;24.742;2023-01-28T09:56:24;99313.94;;;8.16;82.91
44103;BME280;29769;42.178;24.742;2023-01-28T09:59:17;99333.44;;;7.87;82.97
44103;BME280;29769;42.178;24.742;2023-01-28T10:08:29;99335.03;;;8.03;80.29
44103;BME280;29769;42.178;24.742;2023-01-28T10:17:31;99328.59;;;8.32;78.48
44103;BME280;29769;42.178;24.742;2023-01-28T10:20:23;99319.38;;;7.96;82.54
44103;BME280;29769;42.178;24.742;2023-01-28T10:23:23;99330.94;;;7.75;85.88
44103;BME280;29769;42.178;24.742;2023-01-28T10:26:19;99323.47;;;7.34;87.19
44103;BME280;29769;42.178;24.742;2023-01-28T10:29:16;99329.66;;;7.24;88.13
44103;BME280;29769;42.178;24.742;2023-01-28T10:32:06;99322.03;;;6.94;89.68
44103;BME280;29769;42.178;24.742;2023-01-28T10:34:57;99334.25;;;6.90;90.80
44103;BME280;29769;42.178;24.742;2023-01-28T10:37:47;99322.91;;;6.93;89.06
44103;BME280;29769;42.178;24.742;2023-01-28T10:40:33;99314.09;;;7.04;87.17
44103;BME280;29769;42.178;24.742;2023-01-28T10:43:22;99326.03;;;7.39;89.10
44103;BME280;29769;42.178;24.742;2023-01-28T10:46:11;99333.78;;;7.52;85.25
44103;BME280;29769;42.178;24.742;2023-01-28T10:49:25;99315.28;;;7.71;85.98
44103;BME280;29769;42.178;24.742;2023-01-28T10:52:14;99323.19;;;8.47;81.17
44103;BME280;29769;42.178;24.742;2023-01-28T10:55:05;99319.31;;;8.74;76.04
44103;BME280;29769;42.178;24.742;2023-01-28T10:57:50;99314.78;;;9.42;74.80
44103;BME280;29769;42.178;24.742;2023-01-28T11:00:36;99311.06;;;10.02;73.26
44103;BME280;29769;42.178;24.742;2023-01-28T11:03:22;99296.44;;;9.89;70.45
44103;BME280;29769;42.178;24.742;2023-01-28T11:06:23;99309.75;;;10.26;70.78
44103;BME280;29769;42.178;24.742;2023-01-28T11:09:30;99313.41;;;10.60;69.56
44103;BME280;29769;42.178;24.742;2023-01-28T11:12:26;99309.69;;;10.70;66.45
44103;BME280;29769;42.178;24.742;2023-01-28T11:15:16;99319.19;;;11.16;66.42
44103;BME280;29769;42.178;24.742;2023-01-28T11:18:14;99312.81;;;11.25;67.23
44103;BME280;29769;42.178;24.742;2023-01-28T11:21:05;99308.00;;;11.42;66.46
44103;BME280;29769;42.178;24.742;2023-01-28T11:23:59;99306.28;;;12.69;62.30
44103;BME280;29769;42.178;24.742;2023-01-28T11:26:47;99312.03;;;13.12;60.41
44103;BME280;29769;42.178;24.742;2023-01-28T11:29:37;99306.13;;;13.83;58.42
44103;BME280;29769;42.178;24.742;2023-01-28T11:32:25;99310.63;;;14.06;57.58
44103;BME280;29769;42.178;24.742;2023-01-28T11:35:23;99318.03;;;12.88;61.63
44103;BME280;29769;42.178;24.742;2023-01-28T11:38:20;99322.75;;;12.47;63.38
44103;BME280;29769;42.178;24.742;2023-01-28T11:41:05;99315.59;;;11.19;68.23
44103;BME280;29769;42.178;24.742;2023-01-28T11:43:50;99325.34;;;9.88;73.74
44103;BME280;29769;42.178;24.742;2023-01-28T12:10:28;99328.41;;;6.37;96.28
44103;BME280;29769;42.178;24.742;2023-01-28T12:20:14;99331.94;;;6.30;97.84
44103;BME280;29769;42.178;24.742;2023-01-28T12:26:12;99352.03;;;6.05;100.00
44103;BME280;29769;42.178;24.742;2023-01-28T12:29:09;99339.00;;;6.06;100.00
44103;BME280;29769;42.178;24.742;2023-01-28T12:32:23;99343.34;;;5.95;100.00
44103;BME280;29769;42.178;24.742;2023-01-28T12:35:28;99339.00;;;5.96;100.00
44103;BME280;29769;42.178;24.742;2023-01-28T12:41:46;99362.50;;;6.06;100.00
44103;BME280;29769;42.178;24.742;2023-01-28T12:44:34;99359.03;;;5.85;100.00
44103;BME280;29769;42.178;24.742;2023-01-28T12:47:38;99361.59;;;6.13;100.00
44103;BME280;29769;42.178;24.742;2023-01-28T12:50:26;99348.41;;;6.47;100.00
44103;BME280;29769;42.178;24.742;2023-01-28T12:56:34;99365.94;;;6.20;100.00
44103;BME280;29769;42.178;24.742;2023-01-28T12:59:26;99373.69;;;6.42;100.00
44103;BME280;29769;42.178;24.742;2023-01-28T13:08:07;99392.09;;;5.75;100.00
44103;BME280;29769;42.178;24.742;2023-01-28T13:10:57;99409.47;;;5.68;100.00
44103;BME280;29769;42.178;24.742;2023-01-28T13:13:44;99396.44;;;5.40;100.00
44103;BME280;29769;42.178;24.742;2023-01-28T13:16:29;99391.19;;;5.14;100.00
44103;BME280;29769;42.178;24.742;2023-01-28T13:22:21;99408.56;;;4.95;100.00
44103;BME280;29769;42.178;24.742;2023-01-28T13:25:22;99413.72;;;4.87;100.00
44103;BME280;29769;42.178;24.742;2023-01-28T13:28:31;99409.38;;;4.86;100.00
44103;BME280;29769;42.178;24.742;2023-01-28T13:31:22;99419.78;;;4.82;100.00
44103;BME280;29769;42.178;24.742;2023-01-28T13:34:24;99418.00;;;4.69;100.00
44103;BME280;29769;42.178;24.742;2023-01-28T13:37:32;99417.94;;;4.49;100.00
44103;BME280;29769;42.178;24.742;2023-01-28T13:40:24;99400.59;;;4.54;100.00
44103;BME280;29769;42.178;24.742;2023-01-28T13:46:26;99431.81;;;4.48;100.00
44103;BME280;29769;42.178;24.742;2023-01-28T13:49:18;99438.78;;;4.52;100.00
44103;BME280;29769;42.178;24.742;2023-01-28T13:55:05;99440.50;;;4.48;100.00
44103;BME280;29769;42.178;24.742;2023-01-28T14:10:30;99453.25;;;4.09;100.00
44103;BME280;29769;42.178;24.742;2023-01-28T14:16:32;99454.94;;;4.01;100.00
44103;BME280;29769;42.178;24.742;2023-01-28T14:19:27;99449.75;;;4.01;100.00
44103;BME280;29769;42.178;24.742;2023-01-28T14:22:16;99433.25;;;3.97;100.00
44103;BME280;29769;42.178;24.742;2023-01-28T14:25:02;99459.28;;;3.97;100.00
44103;BME280;29769;42.178;24.742;2023-01-28T14:27:51;99458.41;;;3.97;100.00
44103;BME280;29769;42.178;24.742;2023-01-28T14:31:10;99454.03;;;3.96;100.00
44103;BME280;29769;42.178;24.742;2023-01-28T14:33:59;99474.03;;;3.98;100.00
44103;BME280;29769;42.178;24.742;2023-01-28T14:36:49;99467.94;;;3.95;100.00
44103;BME280;29769;42.178;24.742;2023-01-28T14:48:24;99483.59;;;4.02;100.00
44103;BME280;29769;42.178;24.742;2023-01-28T14:52:04;99479.25;;;4.04;100.00
44103;BME280;29769;42.178;24.742;2023-01-28T14:58:08;99491.44;;;4.07;100.00
44103;BME280;29769;42.178;24.742;2023-01-28T15:00:58;99495.81;;;4.08;100.00
44103;BME280;29769;42.178;24.742;2023-01-28T15:03:44;99492.31;;;4.09;100.00
44103;BME280;29769;42.178;24.742;2023-01-28T15:06:34;99499.31;;;4.13;100.00
44103;BME280;29769;42.178;24.742;2023-01-28T15:09:20;99506.22;;;4.14;100.00
44103;BME280;29769;42.178;24.742;2023-01-28T15:12:06;99509.72;;;4.15;100.00
44103;BME280;29769;42.178;24.742;2023-01-28T15:14:51;99505.38;;;4.15;100.00
44103;BME280;29769;42.178;24.742;2023-01-28T15:17:36;99512.38;;;4.18;100.00
44103;BME280;29769;42.178;24.742;2023-01-28T15:20:22;99511.50;;;4.17;100.00
44103;BME280;29769;42.178;24.742;2023-01-28T15:23:07;99518.41;;;4.15;100.00
44103;BME280;29769;42.178;24.742;2023-01-28T15:25:53;99515.81;;;4.18;100.00
44103;BME280;29769;42.178;24.742;2023-01-28T15:28:39;99519.28;;;4.17;100.00
44103;BME280;29769;42.178;24.742;2023-01-28T15:31:27;99521.03;;;4.17;100.00
44103;BME280;29769;42.178;24.742;2023-01-28T15:34:16;99526.25;;;4.20;100.00
44103;BME280;29769;42.178;24.742;2023-01-28T15:37:02;99526.25;;;4.21;100.00
44103;BME280;29769;42.178;24.742;2023-01-28T15:39:46;99532.34;;;4.23;100.00
44103;BME280;29769;42.178;24.742;2023-01-28T15:42:33;99536.66;;;4.23;100.00
44103;BME280;29769;42.178;24.742;2023-01-28T15:45:21;99531.44;;;4.20;100.00
44103;BME280;29769;42.178;24.742;2023-01-28T15:48:06;99541.91;;;4.24;100.00
44103;BME280;29769;42.178;24.742;2023-01-28T15:51:06;99549.72;;;4.24;100.00
44103;BME280;29769;42.178;24.742;2023-01-28T15:53:56;99550.56;;;4.23;100.00
44103;BME280;29769;42.178;24.742;2023-01-28T15:56:42;99551.41;;;4.18;100.00
44103;BME280;29769;42.178;24.742;2023-01-28T15:59:28;99556.56;;;4.15;100.00
44103;BME280;29769;42.178;24.742;2023-01-28T16:02:20;99554.81;;;4.14;100.00
44103;BME280;29769;42.178;24.742;2023-01-28T16:05:06;99557.38;;;4.09;100.00
44103;BME280;29769;42.178;24.742;2023-01-28T16:07:55;99578.25;;;4.12;100.00
44103;BME280;29769;42.178;24.742;2023-01-28T16:10:40;99573.88;;;4.08;100.00
44103;BME280;29769;42.178;24.742;2023-01-28T16:13:27;99578.19;;;4.06;100.00
44103;BME280;29769;42.178;24.742;2023-01-28T16:16:14;99565.06;;;3.92;100.00
44103;BME280;29769;42.178;24.742;2023-01-28T16:18:59;99585.03;;;3.96;100.00
44103;BME280;29769;42.178;24.742;2023-01-28T16:21:45;99585.84;;;3.91;100.00
44103;BME280;29769;42.178;24.742;2023-01-28T16:24:30;99593.59;;;3.86;100.00
44103;BME280;29769;42.178;24.742;2023-01-28T16:27:26;99603.16;;;3.87;100.00
44103;BME280;29769;42.178;24.742;2023-01-28T16:30:12;99590.13;;;3.84;100.00
44103;BME280;29769;42.178;24.742;2023-01-28T16:32:57;99602.28;;;3.87;100.00
44103;BME280;29769;42.178;24.742;2023-01-28T16:35:42;99598.81;;;3.85;100.00
44103;BME280;29769;42.178;24.742;2023-01-28T16:38:26;99606.63;;;3.86;100.00
44103;BME280;29769;42.178;24.742;2023-01-28T16:41:14;99597.91;;;3.83;100.00
44103;BME280;29769;42.178;24.742;2023-01-28T16:44:03;99595.34;;;3.84;100.00
44103;BME280;29769;42.178;24.742;2023-01-28T16:46:49;99615.34;;;3.91;100.00
44103;BME280;29769;42.178;24.742;2023-01-28T16:49:34;99599.66;;;3.84;100.00
44103;BME280;29769;42.178;24.742;2023-01-28T16:52:19;99612.69;;;3.87;100.00